sensor_id;sensor_type;location;lat;lon;timestamp;temperature;humidity
32293;DHT22;43233;48.608;8.838;2023-02-26T00:01:15;0.40;55.40
32293;DHT22;43233;48.608;8.838;2023-02-26T00:03:42;0.40;55.40
32293;DHT22;43233;48.608;8.838;2023-02-26T00:06:08;0.40;55.40
32293;DHT22;43233;48.608;8.838;2023-02-26T00:08:34;0.40;55.40
32293;DHT22;43233;48.608;8.838;2023-02-26T00:11:00;0.40;55.70
32293;DHT22;43233;48.608;8.838;2023-02-26T00:13:29;0.30;56.40
32293;DHT22;43233;48.608;8.838;2023-02-26T00:15:59;0.30;56.40
32293;DHT22;43233;48.608;8.838;2023-02-26T00:18:25;0.30;56.60
32293;DHT22;43233;48.608;8.838;2023-02-26T00:20:51;0.30;56.40
32293;DHT22;43233;48.608;8.838;2023-02-26T00:23:17;0.30;56.30
32293;DHT22;43233;48.608;8.838;2023-02-26T00:25:44;0.30;56.10
32293;DHT22;43233;48.608;8.838;2023-02-26T00:28:10;0.30;56.20
32293;DHT22;43233;48.608;8.838;2023-02-26T00:30:36;0.20;55.70
32293;DHT22;43233;48.608;8.838;2023-02-26T00:33:03;0.20;55.60
32293;DHT22;43233;48.608;8.838;2023-02-26T00:35:30;0.10;55.50
32293;DHT22;43233;48.608;8.838;2023-02-26T00:40:43;0.00;55.60
32293;DHT22;43233;48.608;8.838;2023-02-26T00:43:19;-0.10;55.50
32293;DHT22;43233;48.608;8.838;2023-02-26T00:48:39;-0.10;55.50
32293;DHT22;43233;48.608;8.838;2023-02-26T00:51:22;-0.10;55.70
32293;DHT22;43233;48.608;8.838;2023-02-26T00:56:41;-0.20;56.00
32293;DHT22;43233;48.608;8.838;2023-02-26T00:59:07;-0.20;56.00
32293;DHT22;43233;48.608;8.838;2023-02-26T01:01:32;-0.30;55.90
32293;DHT22;43233;48.608;8.838;2023-02-26T01:03:58;-0.30;56.10
32293;DHT22;43233;48.608;8.838;2023-02-26T01:06:27;-0.30;56.10
32293;DHT22;43233;48.608;8.838;2023-02-26T01:09:04;-0.40;56.10
32293;DHT22;43233;48.608;8.838;2023-02-26T01:11:35;-0.30;56.20
32293;DHT22;43233;48.608;8.838;2023-02-26T01:14:02;-0.30;56.30
32293;DHT22;43233;48.608;8.838;2023-02-26T01:16:29;-0.40;56.10
32293;DHT22;43233;48.608;8.838;2023-02-26T01:19:06;-0.40;56.10
32293;DHT22;43233;48.608;8.838;2023-02-26T01:21:42;-0.40;56.20
32293;DHT22;43233;48.608;8.838;2023-02-26T01:24:13;-0.50;56.50
32293;DHT22;43233;48.608;8.838;2023-02-26T01:26:40;-0.50;56.40
32293;DHT22;43233;48.608;8.838;2023-02-26T01:29:05;-0.50;56.50
32293;DHT22;43233;48.608;8.838;2023-02-26T01:31:47;-0.50;56.60
32293;DHT22;43233;48.608;8.838;2023-02-26T01:36:45;-0.60;56.90
32293;DHT22;43233;48.608;8.838;2023-02-26T01:39:27;-0.60;56.60
32293;DHT22;43233;48.608;8.838;2023-02-26T01:42:03;-0.70;57.10
32293;DHT22;43233;48.608;8.838;2023-02-26T01:44:43;-0.70;56.90
32293;DHT22;43233;48.608;8.838;2023-02-26T01:47:34;-0.70;56.70
32293;DHT22;43233;48.608;8.838;2023-02-26T01:50:17;-0.70;56.70
32293;DHT22;43233;48.608;8.838;2023-02-26T01:55:14;-0.70;56.80
32293;DHT22;43233;48.608;8.838;2023-02-26T01:57:40;-0.80;56.90
32293;DHT22;43233;48.608;8.838;2023-02-26T02:00:06;-0.80;57.00
32293;DHT22;43233;48.608;8.838;2023-02-26T02:02:33;-0.80;57.10
32293;DHT22;43233;48.608;8.838;2023-02-26T02:05:03;-0.80;57.00
32293;DHT22;43233;48.608;8.838;2023-02-26T02:07:31;-0.80;56.90
32293;DHT22;43233;48.608;8.838;2023-02-26T02:09:57;-0.80;57.00
32293;DHT22;43233;48.608;8.838;2023-02-26T02:13:05;-0.80;56.90
32293;DHT22;43233;48.608;8.838;2023-02-26T02:18:35;-0.80;56.80
32293;DHT22;43233;48.608;8.838;2023-02-26T02:24:37;-0.80;56.50
32293;DHT22;43233;48.608;8.838;2023-02-26T02:26:59;-0.80;56.50
32293;DHT22;43233;48.608;8.838;2023-02-26T02:30:01;-0.80;56.50
32293;DHT22;43233;48.608;8.838;2023-02-26T02:32:43;-0.80;56.70
32293;DHT22;43233;48.608;8.838;2023-02-26T02:35:20;-0.90;57.00
32293;DHT22;43233;48.608;8.838;2023-02-26T02:40:32;-1.00;57.10
32293;DHT22;43233;48.608;8.838;2023-02-26T02:43:03;-1.00;57.10
32293;DHT22;43233;48.608;8.838;2023-02-26T02:48:08;-1.00;57.90
32293;DHT22;43233;48.608;8.838;2023-02-26T02:50:40;-1.00;57.00
32293;DHT22;43233;48.608;8.838;2023-02-26T02:53:24;-1.00;56.90
32293;DHT22;43233;48.608;8.838;2023-02-26T02:56:02;-1.10;56.90
32293;DHT22;43233;48.608;8.838;2023-02-26T02:58:32;-1.10;57.60
32293;DHT22;43233;48.608;8.838;2023-02-26T03:01:01;-1.10;56.90
32293;DHT22;43233;48.608;8.838;2023-02-26T03:03:49;-1.10;57.00
32293;DHT22;43233;48.608;8.838;2023-02-26T03:06:16;-1.20;56.90
32293;DHT22;43233;48.608;8.838;2023-02-26T03:08:42;-1.20;57.10
32293;DHT22;43233;48.608;8.838;2023-02-26T03:11:09;-1.20;57.10
32293;DHT22;43233;48.608;8.838;2023-02-26T03:13:36;-1.20;57.20
32293;DHT22;43233;48.608;8.838;2023-02-26T03:19:10;-1.30;57.00
32293;DHT22;43233;48.608;8.838;2023-02-26T03:21:48;-1.40;57.10
32293;DHT22;43233;48.608;8.838;2023-02-26T03:24:36;-1.40;57.10
32293;DHT22;43233;48.608;8.838;2023-02-26T03:27:20;-1.40;57.30
32293;DHT22;43233;48.608;8.838;2023-02-26T03:29:57;-1.40;57.30
32293;DHT22;43233;48.608;8.838;2023-02-26T03:32:40;-1.40;57.40
32293;DHT22;43233;48.608;8.838;2023-02-26T03:35:08;-1.50;57.30
32293;DHT22;43233;48.608;8.838;2023-02-26T03:37:47;-1.50;57.40
32293;DHT22;43233;48.608;8.838;2023-02-26T03:40:41;-1.60;57.60
32293;DHT22;43233;48.608;8.838;2023-02-26T03:43:13;-1.60;57.80
32293;DHT22;43233;48.608;8.838;2023-02-26T03:45:42;-1.60;57.70
32293;DHT22;43233;48.608;8.838;2023-02-26T03:48:13;-1.60;57.80
32293;DHT22;43233;48.608;8.838;2023-02-26T03:50:47;-1.60;57.90
32293;DHT22;43233;48.608;8.838;2023-02-26T03:53:24;-1.60;58.00
32293;DHT22;43233;48.608;8.838;2023-02-26T03:56:03;-1.60;58.10
32293;DHT22;43233;48.608;8.838;2023-02-26T03:58:31;-1.70;58.10
32293;DHT22;43233;48.608;8.838;2023-02-26T04:01:03;-1.70;58.40
32293;DHT22;43233;48.608;8.838;2023-02-26T04:03:39;-1.70;58.40
32293;DHT22;43233;48.608;8.838;2023-02-26T04:06:07;-1.70;58.30
32293;DHT22;43233;48.608;8.838;2023-02-26T04:08:33;-1.70;58.40
32293;DHT22;43233;48.608;8.838;2023-02-26T04:11:07;-1.70;58.50
32293;DHT22;43233;48.608;8.838;2023-02-26T04:13:33;-1.80;58.80
32293;DHT22;43233;48.608;8.838;2023-02-26T04:15:59;-1.80;58.80
32293;DHT22;43233;48.608;8.838;2023-02-26T04:18:25;-1.80;58.80
32293;DHT22;43233;48.608;8.838;2023-02-26T04:20:51;-1.80;58.90
32293;DHT22;43233;48.608;8.838;2023-02-26T04:23:16;-1.80;59.00
32293;DHT22;43233;48.608;8.838;2023-02-26T04:25:44;-1.90;59.00
32293;DHT22;43233;48.608;8.838;2023-02-26T04:28:09;-1.90;59.10
32293;DHT22;43233;48.608;8.838;2023-02-26T04:30:35;-1.90;59.30
32293;DHT22;43233;48.608;8.838;2023-02-26T04:33:00;-1.90;59.50
32293;DHT22;43233;48.608;8.838;2023-02-26T04:35:26;-1.90;59.60
32293;DHT22;43233;48.608;8.838;2023-02-26T04:37:52;-2.00;59.60
32293;DHT22;43233;48.608;8.838;2023-02-26T04:40:18;-2.00;59.80
32293;DHT22;43233;48.608;8.838;2023-02-26T04:42:43;-2.00;59.80
32293;DHT22;43233;48.608;8.838;2023-02-26T04:45:09;-2.00;59.70
32293;DHT22;43233;48.608;8.838;2023-02-26T04:47:35;-2.10;59.80
32293;DHT22;43233;48.608;8.838;2023-02-26T04:50:01;-2.10;59.90
32293;DHT22;43233;48.608;8.838;2023-02-26T04:52:26;-2.10;60.90
32293;DHT22;43233;48.608;8.838;2023-02-26T04:54:52;-2.10;60.30
32293;DHT22;43233;48.608;8.838;2023-02-26T04:57:17;-2.10;60.60
32293;DHT22;43233;48.608;8.838;2023-02-26T04:59:43;-2.10;60.70
32293;DHT22;43233;48.608;8.838;2023-02-26T05:02:09;-2.10;60.70
32293;DHT22;43233;48.608;8.838;2023-02-26T05:04:34;-2.20;60.70
32293;DHT22;43233;48.608;8.838;2023-02-26T05:07:00;-2.20;60.80
32293;DHT22;43233;48.608;8.838;2023-02-26T05:09:26;-2.20;62.00
32293;DHT22;43233;48.608;8.838;2023-02-26T05:11:51;-2.20;61.50
32293;DHT22;43233;48.608;8.838;2023-02-26T05:14:17;-2.20;61.40
32293;DHT22;43233;48.608;8.838;2023-02-26T05:16:43;-2.20;61.30
32293;DHT22;43233;48.608;8.838;2023-02-26T05:19:08;-2.20;61.50
32293;DHT22;43233;48.608;8.838;2023-02-26T05:21:34;-2.30;61.60
32293;DHT22;43233;48.608;8.838;2023-02-26T05:24:00;-2.30;61.40
32293;DHT22;43233;48.608;8.838;2023-02-26T05:26:25;-2.20;61.30
32293;DHT22;43233;48.608;8.838;2023-02-26T05:28:51;-2.30;61.70
32293;DHT22;43233;48.608;8.838;2023-02-26T05:31:17;-2.30;61.80
32293;DHT22;43233;48.608;8.838;2023-02-26T05:33:42;-2.30;62.40
32293;DHT22;43233;48.608;8.838;2023-02-26T05:36:08;-2.30;62.50
32293;DHT22;43233;48.608;8.838;2023-02-26T05:38:34;-2.30;62.50
32293;DHT22;43233;48.608;8.838;2023-02-26T05:41:00;-2.30;62.70
32293;DHT22;43233;48.608;8.838;2023-02-26T05:43:26;-2.30;62.70
32293;DHT22;43233;48.608;8.838;2023-02-26T05:45:53;-2.30;62.80
32293;DHT22;43233;48.608;8.838;2023-02-26T05:48:20;-2.30;62.80
32293;DHT22;43233;48.608;8.838;2023-02-26T05:50:47;-2.30;62.60
32293;DHT22;43233;48.608;8.838;2023-02-26T05:53:13;-2.30;62.60
32293;DHT22;43233;48.608;8.838;2023-02-26T05:55:38;-2.30;62.70
32293;DHT22;43233;48.608;8.838;2023-02-26T05:58:04;-2.30;62.60
32293;DHT22;43233;48.608;8.838;2023-02-26T06:00:29;-2.30;62.80
32293;DHT22;43233;48.608;8.838;2023-02-26T06:02:55;-2.30;62.70
32293;DHT22;43233;48.608;8.838;2023-02-26T06:05:21;-2.30;62.80
32293;DHT22;43233;48.608;8.838;2023-02-26T06:07:46;-2.30;62.70
32293;DHT22;43233;48.608;8.838;2023-02-26T06:10:12;-2.40;62.90
32293;DHT22;43233;48.608;8.838;2023-02-26T06:12:38;-2.40;63.00
32293;DHT22;43233;48.608;8.838;2023-02-26T06:15:05;-2.40;63.00
32293;DHT22;43233;48.608;8.838;2023-02-26T06:17:32;-2.40;63.20
32293;DHT22;43233;48.608;8.838;2023-02-26T06:19:58;-2.40;63.20
32293;DHT22;43233;48.608;8.838;2023-02-26T06:22:23;-2.50;63.40
32293;DHT22;43233;48.608;8.838;2023-02-26T06:24:49;-2.50;63.30
32293;DHT22;43233;48.608;8.838;2023-02-26T06:27:15;-2.50;63.50
32293;DHT22;43233;48.608;8.838;2023-02-26T06:29:41;-2.50;63.40
32293;DHT22;43233;48.608;8.838;2023-02-26T06:32:07;-2.50;64.40
32293;DHT22;43233;48.608;8.838;2023-02-26T06:34:32;-2.50;63.50
32293;DHT22;43233;48.608;8.838;2023-02-26T06:36:58;-2.50;63.70
32293;DHT22;43233;48.608;8.838;2023-02-26T06:39:23;-2.50;64.10
32293;DHT22;43233;48.608;8.838;2023-02-26T06:41:49;-2.50;64.60
32293;DHT22;43233;48.608;8.838;2023-02-26T06:44:15;-2.50;64.70
32293;DHT22;43233;48.608;8.838;2023-02-26T06:46:40;-2.50;65.00
32293;DHT22;43233;48.608;8.838;2023-02-26T06:49:06;-2.50;65.50
32293;DHT22;43233;48.608;8.838;2023-02-26T06:51:32;-2.50;65.60
32293;DHT22;43233;48.608;8.838;2023-02-26T06:53:58;-2.50;65.80
32293;DHT22;43233;48.608;8.838;2023-02-26T06:56:24;-2.50;66.10
32293;DHT22;43233;48.608;8.838;2023-02-26T06:58:49;-2.50;66.60
32293;DHT22;43233;48.608;8.838;2023-02-26T07:01:15;-2.50;67.50
32293;DHT22;43233;48.608;8.838;2023-02-26T07:03:41;-2.50;68.10
32293;DHT22;43233;48.608;8.838;2023-02-26T07:06:08;-2.50;68.40
32293;DHT22;43233;48.608;8.838;2023-02-26T07:08:35;-2.50;68.70
32293;DHT22;43233;48.608;8.838;2023-02-26T07:11:01;-2.50;69.40
32293;DHT22;43233;48.608;8.838;2023-02-26T07:13:27;-2.40;69.60
32293;DHT22;43233;48.608;8.838;2023-02-26T07:15:52;-2.40;70.10
32293;DHT22;43233;48.608;8.838;2023-02-26T07:18:18;-2.40;70.60
32293;DHT22;43233;48.608;8.838;2023-02-26T07:20:44;-2.30;71.00
32293;DHT22;43233;48.608;8.838;2023-02-26T07:23:10;-2.30;73.80
32293;DHT22;43233;48.608;8.838;2023-02-26T07:25:36;-2.30;76.50
32293;DHT22;43233;48.608;8.838;2023-02-26T07:28:03;-2.30;76.80
32293;DHT22;43233;48.608;8.838;2023-02-26T07:30:29;-2.30;76.70
32293;DHT22;43233;48.608;8.838;2023-02-26T07:32:55;-2.20;74.50
32293;DHT22;43233;48.608;8.838;2023-02-26T07:35:21;-2.10;73.50
32293;DHT22;43233;48.608;8.838;2023-02-26T07:37:46;-2.10;72.50
32293;DHT22;43233;48.608;8.838;2023-02-26T07:40:12;-2.10;72.70
32293;DHT22;43233;48.608;8.838;2023-02-26T07:42:38;-2.10;72.50
32293;DHT22;43233;48.608;8.838;2023-02-26T07:45:04;-2.00;72.40
32293;DHT22;43233;48.608;8.838;2023-02-26T07:47:31;-2.00;72.00
32293;DHT22;43233;48.608;8.838;2023-02-26T07:49:57;-1.90;71.80
32293;DHT22;43233;48.608;8.838;2023-02-26T07:52:22;-2.00;72.10
32293;DHT22;43233;48.608;8.838;2023-02-26T07:54:48;-2.00;73.20
32293;DHT22;43233;48.608;8.838;2023-02-26T07:57:14;-2.00;72.70
32293;DHT22;43233;48.608;8.838;2023-02-26T07:59:39;-1.90;72.70
32293;DHT22;43233;48.608;8.838;2023-02-26T08:02:05;-1.80;72.30
32293;DHT22;43233;48.608;8.838;2023-02-26T08:04:31;-1.70;72.20
32293;DHT22;43233;48.608;8.838;2023-02-26T08:07:00;-1.60;72.20
32293;DHT22;43233;48.608;8.838;2023-02-26T08:09:26;-1.50;70.90
32293;DHT22;43233;48.608;8.838;2023-02-26T08:11:52;-1.40;70.90
32293;DHT22;43233;48.608;8.838;2023-02-26T08:14:18;-1.30;70.80
32293;DHT22;43233;48.608;8.838;2023-02-26T08:16:43;-1.30;69.80
32293;DHT22;43233;48.608;8.838;2023-02-26T08:19:09;-1.30;69.70
32293;DHT22;43233;48.608;8.838;2023-02-26T08:21:35;-1.30;68.90
32293;DHT22;43233;48.608;8.838;2023-02-26T08:24:00;-1.30;69.20
32293;DHT22;43233;48.608;8.838;2023-02-26T08:26:26;-1.30;69.10
32293;DHT22;43233;48.608;8.838;2023-02-26T08:28:52;-1.30;68.50
32293;DHT22;43233;48.608;8.838;2023-02-26T08:31:18;-1.30;68.70
32293;DHT22;43233;48.608;8.838;2023-02-26T08:33:44;-1.20;69.40
32293;DHT22;43233;48.608;8.838;2023-02-26T08:36:10;-1.10;69.10
32293;DHT22;43233;48.608;8.838;2023-02-26T08:38:35;-1.10;68.00
32293;DHT22;43233;48.608;8.838;2023-02-26T08:41:01;-1.00;68.70
32293;DHT22;43233;48.608;8.838;2023-02-26T08:43:27;-1.00;68.90
32293;DHT22;43233;48.608;8.838;2023-02-26T08:45:55;-1.00;68.40
32293;DHT22;43233;48.608;8.838;2023-02-26T08:48:22;-0.90;68.50
32293;DHT22;43233;48.608;8.838;2023-02-26T08:50:48;-1.10;68.70
32293;DHT22;43233;48.608;8.838;2023-02-26T08:53:14;-1.00;69.70
32293;DHT22;43233;48.608;8.838;2023-02-26T08:55:40;-1.10;70.00
32293;DHT22;43233;48.608;8.838;2023-02-26T08:58:05;-1.10;70.60
32293;DHT22;43233;48.608;8.838;2023-02-26T09:00:32;-1.30;69.70
32293;DHT22;43233;48.608;8.838;2023-02-26T09:02:58;-1.30;70.00
32293;DHT22;43233;48.608;8.838;2023-02-26T09:05:23;-1.40;70.60
32293;DHT22;43233;48.608;8.838;2023-02-26T09:07:49;-1.30;71.30
32293;DHT22;43233;48.608;8.838;2023-02-26T09:10:15;-1.20;71.20
32293;DHT22;43233;48.608;8.838;2023-02-26T09:12:41;-1.30;69.30
32293;DHT22;43233;48.608;8.838;2023-02-26T09:15:08;-1.20;70.30
32293;DHT22;43233;48.608;8.838;2023-02-26T09:17:34;-1.10;70.40
32293;DHT22;43233;48.608;8.838;2023-02-26T09:20:00;-1.10;69.70
32293;DHT22;43233;48.608;8.838;2023-02-26T09:22:25;-1.10;69.20
32293;DHT22;43233;48.608;8.838;2023-02-26T09:24:51;-1.10;69.80
32293;DHT22;43233;48.608;8.838;2023-02-26T09:27:17;-1.20;69.00
32293;DHT22;43233;48.608;8.838;2023-02-26T09:29:42;-1.20;70.90
32293;DHT22;43233;48.608;8.838;2023-02-26T09:32:08;-1.20;69.80
32293;DHT22;43233;48.608;8.838;2023-02-26T09:34:35;-1.20;69.40
32293;DHT22;43233;48.608;8.838;2023-02-26T09:37:02;-1.20;67.80
32293;DHT22;43233;48.608;8.838;2023-02-26T09:39:28;-1.30;68.10
32293;DHT22;43233;48.608;8.838;2023-02-26T09:41:56;-1.40;68.30
32293;DHT22;43233;48.608;8.838;2023-02-26T09:47:04;-1.50;70.30
32293;DHT22;43233;48.608;8.838;2023-02-26T09:54:46;-1.50;71.70
32293;DHT22;43233;48.608;8.838;2023-02-26T09:59:52;-1.50;71.40
32293;DHT22;43233;48.608;8.838;2023-02-26T10:02:27;-1.40;71.70
32293;DHT22;43233;48.608;8.838;2023-02-26T10:13:49;-1.50;71.20
32293;DHT22;43233;48.608;8.838;2023-02-26T10:16:20;-1.50;71.80
32293;DHT22;43233;48.608;8.838;2023-02-26T10:18:56;-1.40;71.90
32293;DHT22;43233;48.608;8.838;2023-02-26T10:21:53;-1.40;72.00
32293;DHT22;43233;48.608;8.838;2023-02-26T10:24:26;-1.40;72.00
32293;DHT22;43233;48.608;8.838;2023-02-26T10:27:02;-1.40;73.10
32293;DHT22;43233;48.608;8.838;2023-02-26T10:29:50;-1.40;72.40
32293;DHT22;43233;48.608;8.838;2023-02-26T10:34:57;-1.40;72.50
32293;DHT22;43233;48.608;8.838;2023-02-26T10:37:51;-1.40;72.80
32293;DHT22;43233;48.608;8.838;2023-02-26T10:40:36;-1.50;74.00
32293;DHT22;43233;48.608;8.838;2023-02-26T10:43:34;-1.40;74.00
32293;DHT22;43233;48.608;8.838;2023-02-26T10:48:38;-1.30;74.40
32293;DHT22;43233;48.608;8.838;2023-02-26T10:51:18;-1.30;73.50
32293;DHT22;43233;48.608;8.838;2023-02-26T10:53:48;-1.30;73.10
32293;DHT22;43233;48.608;8.838;2023-02-26T10:56:20;-1.20;74.10
32293;DHT22;43233;48.608;8.838;2023-02-26T10:58:50;-1.10;74.30
32293;DHT22;43233;48.608;8.838;2023-02-26T11:01:18;-1.00;74.10
32293;DHT22;43233;48.608;8.838;2023-02-26T11:03:46;-0.90;73.80
32293;DHT22;43233;48.608;8.838;2023-02-26T11:06:33;-0.90;72.70
32293;DHT22;43233;48.608;8.838;2023-02-26T11:09:00;-0.90;72.20
32293;DHT22;43233;48.608;8.838;2023-02-26T11:11:38;-0.90;73.20
32293;DHT22;43233;48.608;8.838;2023-02-26T11:14:05;-0.90;73.70
32293;DHT22;43233;48.608;8.838;2023-02-26T11:16:31;-0.90;73.40
32293;DHT22;43233;48.608;8.838;2023-02-26T11:18:59;-0.80;73.00
32293;DHT22;43233;48.608;8.838;2023-02-26T11:21:38;-0.80;73.70
32293;DHT22;43233;48.608;8.838;2023-02-26T11:24:08;-0.80;73.00
32293;DHT22;43233;48.608;8.838;2023-02-26T11:26:37;-0.70;73.50
32293;DHT22;43233;48.608;8.838;2023-02-26T11:29:03;-0.70;73.70
32293;DHT22;43233;48.608;8.838;2023-02-26T11:31:31;-0.70;73.40
32293;DHT22;43233;48.608;8.838;2023-02-26T11:34:02;-0.70;72.70
32293;DHT22;43233;48.608;8.838;2023-02-26T11:36:31;-0.60;72.20
32293;DHT22;43233;48.608;8.838;2023-02-26T11:39:02;-0.60;73.10
32293;DHT22;43233;48.608;8.838;2023-02-26T11:41:29;-0.50;72.80
32293;DHT22;43233;48.608;8.838;2023-02-26T11:44:12;-0.50;72.60
32293;DHT22;43233;48.608;8.838;2023-02-26T11:46:48;-0.50;71.60
32293;DHT22;43233;48.608;8.838;2023-02-26T11:49:17;-0.50;70.70
32293;DHT22;43233;48.608;8.838;2023-02-26T11:51:45;-0.40;71.10
32293;DHT22;43233;48.608;8.838;2023-02-26T11:54:22;-0.40;71.20
32293;DHT22;43233;48.608;8.838;2023-02-26T11:56:49;-0.50;70.00
32293;DHT22;43233;48.608;8.838;2023-02-26T11:59:22;-0.40;71.10
32293;DHT22;43233;48.608;8.838;2023-02-26T12:01:50;-0.30;70.70
32293;DHT22;43233;48.608;8.838;2023-02-26T12:04:25;-0.30;70.70
32293;DHT22;43233;48.608;8.838;2023-02-26T12:06:52;-0.20;68.70
32293;DHT22;43233;48.608;8.838;2023-02-26T12:09:18;-0.30;68.50
32293;DHT22;43233;48.608;8.838;2023-02-26T12:19:58;-0.50;68.70
32293;DHT22;43233;48.608;8.838;2023-02-26T12:33:49;-0.40;68.50
32293;DHT22;43233;48.608;8.838;2023-02-26T12:36:42;-0.30;67.80
32293;DHT22;43233;48.608;8.838;2023-02-26T12:52:45;-0.50;71.00
32293;DHT22;43233;48.608;8.838;2023-02-26T12:58:52;-0.50;70.40
32293;DHT22;43233;48.608;8.838;2023-02-26T13:07:13;-0.40;71.50
32293;DHT22;43233;48.608;8.838;2023-02-26T13:20:39;-0.50;71.10
32293;DHT22;43233;48.608;8.838;2023-02-26T13:23:18;-0.50;70.50
32293;DHT22;43233;48.608;8.838;2023-02-26T13:25:49;-0.50;70.70
32293;DHT22;43233;48.608;8.838;2023-02-26T13:31:07;-0.40;69.90
32293;DHT22;43233;48.608;8.838;2023-02-26T13:33:34;-0.40;68.50
32293;DHT22;43233;48.608;8.838;2023-02-26T13:36:01;-0.40;69.10
32293;DHT22;43233;48.608;8.838;2023-02-26T13:41:35;-0.30;69.00
32293;DHT22;43233;48.608;8.838;2023-02-26T13:50:11;-0.20;70.40
32293;DHT22;43233;48.608;8.838;2023-02-26T13:52:50;-0.20;70.20
32293;DHT22;43233;48.608;8.838;2023-02-26T13:58:37;-0.10;71.20
32293;DHT22;43233;48.608;8.838;2023-02-26T14:06:21;-0.10;70.20
32293;DHT22;43233;48.608;8.838;2023-02-26T14:08:50;-0.20;69.00
32293;DHT22;43233;48.608;8.838;2023-02-26T14:16:34;-0.20;69.10
32293;DHT22;43233;48.608;8.838;2023-02-26T14:19:22;-0.10;57.40
32293;DHT22;43233;48.608;8.838;2023-02-26T14:21:51;0.00;56.00
32293;DHT22;43233;48.608;8.838;2023-02-26T14:24:22;0.10;56.40
32293;DHT22;43233;48.608;8.838;2023-02-26T14:27:06;0.20;55.40
32293;DHT22;43233;48.608;8.838;2023-02-26T14:29:43;0.20;53.60
32293;DHT22;43233;48.608;8.838;2023-02-26T14:34:40;0.50;54.20
32293;DHT22;43233;48.608;8.838;2023-02-26T14:37:11;0.60;53.70
32293;DHT22;43233;48.608;8.838;2023-02-26T14:39:45;0.60;52.80
32293;DHT22;43233;48.608;8.838;2023-02-26T14:42:20;0.70;52.80
32293;DHT22;43233;48.608;8.838;2023-02-26T14:44:50;1.20;52.20
32293;DHT22;43233;48.608;8.838;2023-02-26T14:47:18;1.90;52.70
32293;DHT22;43233;48.608;8.838;2023-02-26T14:49:46;2.60;51.30
32293;DHT22;43233;48.608;8.838;2023-02-26T14:52:35;2.50;47.30
32293;DHT22;43233;48.608;8.838;2023-02-26T15:03:18;3.60;49.10
32293;DHT22;43233;48.608;8.838;2023-02-26T15:19:17;7.20;36.40
32293;DHT22;43233;48.608;8.838;2023-02-26T15:22:12;7.70;32.50
32293;DHT22;43233;48.608;8.838;2023-02-26T15:24:41;7.90;33.90
32293;DHT22;43233;48.608;8.838;2023-02-26T15:27:09;8.70;33.80
32293;DHT22;43233;48.608;8.838;2023-02-26T15:29:37;8.30;31.60
32293;DHT22;43233;48.608;8.838;2023-02-26T15:32:25;8.50;32.30
32293;DHT22;43233;48.608;8.838;2023-02-26T15:35:17;8.70;30.80
32293;DHT22;43233;48.608;8.838;2023-02-26T15:37:40;8.60;29.80
32293;DHT22;43233;48.608;8.838;2023-02-26T15:40:07;7.20;29.90
32293;DHT22;43233;48.608;8.838;2023-02-26T15:42:38;6.80;31.50
32293;DHT22;43233;48.608;8.838;2023-02-26T15:45:17;6.50;32.50
32293;DHT22;43233;48.608;8.838;2023-02-26T15:47:47;6.40;32.30
32293;DHT22;43233;48.608;8.838;2023-02-26T15:50:15;5.90;32.30
32293;DHT22;43233;48.608;8.838;2023-02-26T15:52:41;4.90;34.40
32293;DHT22;43233;48.608;8.838;2023-02-26T15:55:13;4.30;34.70
32293;DHT22;43233;48.608;8.838;2023-02-26T15:57:40;3.80;36.30
32293;DHT22;43233;48.608;8.838;2023-02-26T16:00:12;3.50;37.30
32293;DHT22;43233;48.608;8.838;2023-02-26T16:02:41;2.90;37.70
32293;DHT22;43233;48.608;8.838;2023-02-26T16:05:11;2.80;39.30
32293;DHT22;43233;48.608;8.838;2023-02-26T16:07:39;2.50;40.00
32293;DHT22;43233;48.608;8.838;2023-02-26T16:10:14;2.30;40.90
32293;DHT22;43233;48.608;8.838;2023-02-26T16:12:42;2.20;41.90
32293;DHT22;43233;48.608;8.838;2023-02-26T16:15:15;1.90;43.00
32293;DHT22;43233;48.608;8.838;2023-02-26T16:17:44;1.80;43.50
32293;DHT22;43233;48.608;8.838;2023-02-26T16:20:16;1.60;43.90
32293;DHT22;43233;48.608;8.838;2023-02-26T16:22:49;1.40;43.90
32293;DHT22;43233;48.608;8.838;2023-02-26T16:25:37;1.00;44.40
32293;DHT22;43233;48.608;8.838;2023-02-26T16:28:29;0.80;46.10
32293;DHT22;43233;48.608;8.838;2023-02-26T16:30:58;0.90;46.10
32293;DHT22;43233;48.608;8.838;2023-02-26T16:33:25;1.00;46.40
32293;DHT22;43233;48.608;8.838;2023-02-26T16:36:13;1.00;46.20
32293;DHT22;43233;48.608;8.838;2023-02-26T16:38:44;0.90;46.70
32293;DHT22;43233;48.608;8.838;2023-02-26T16:41:12;1.00;46.90
32293;DHT22;43233;48.608;8.838;2023-02-26T16:46:59;0.90;47.40
32293;DHT22;43233;48.608;8.838;2023-02-26T16:49:32;0.80;47.90
32293;DHT22;43233;48.608;8.838;2023-02-26T16:51:59;0.60;45.30
32293;DHT22;43233;48.608;8.838;2023-02-26T16:54:26;0.50;44.60
32293;DHT22;43233;48.608;8.838;2023-02-26T16:59:33;0.40;44.80
32293;DHT22;43233;48.608;8.838;2023-02-26T17:02:19;0.30;44.80
32293;DHT22;43233;48.608;8.838;2023-02-26T17:04:51;0.20;45.10
32293;DHT22;43233;48.608;8.838;2023-02-26T17:09:51;0.10;45.90
32293;DHT22;43233;48.608;8.838;2023-02-26T17:12:29;0.20;46.10
32293;DHT22;43233;48.608;8.838;2023-02-26T17:15:26;0.20;45.70
32293;DHT22;43233;48.608;8.838;2023-02-26T17:17:52;0.10;45.40
32293;DHT22;43233;48.608;8.838;2023-02-26T17:20:26;0.10;45.40
32293;DHT22;43233;48.608;8.838;2023-02-26T17:22:53;0.00;45.80
32293;DHT22;43233;48.608;8.838;2023-02-26T17:25:20;0.10;46.10
32293;DHT22;43233;48.608;8.838;2023-02-26T17:27:47;0.00;45.50
32293;DHT22;43233;48.608;8.838;2023-02-26T17:30:21;0.00;45.20
32293;DHT22;43233;48.608;8.838;2023-02-26T17:32:48;-0.10;44.70
32293;DHT22;43233;48.608;8.838;2023-02-26T17:35:16;-0.10;45.40
32293;DHT22;43233;48.608;8.838;2023-02-26T17:37:43;-0.20;45.00
32293;DHT22;43233;48.608;8.838;2023-02-26T17:40:21;-0.10;45.30
32293;DHT22;43233;48.608;8.838;2023-02-26T17:42:47;-0.10;45.70
32293;DHT22;43233;48.608;8.838;2023-02-26T17:45:13;-0.20;45.10
32293;DHT22;43233;48.608;8.838;2023-02-26T17:47:40;-0.30;44.80
32293;DHT22;43233;48.608;8.838;2023-02-26T17:50:39;-0.30;45.50
32293;DHT22;43233;48.608;8.838;2023-02-26T17:53:05;-0.20;45.60
32293;DHT22;43233;48.608;8.838;2023-02-26T17:55:32;-0.20;45.20
32293;DHT22;43233;48.608;8.838;2023-02-26T17:58:00;-0.30;45.30
32293;DHT22;43233;48.608;8.838;2023-02-26T18:00:25;-0.30;45.80
32293;DHT22;43233;48.608;8.838;2023-02-26T18:02:51;-0.30;45.90
32293;DHT22;43233;48.608;8.838;2023-02-26T18:05:18;-0.30;46.40
32293;DHT22;43233;48.608;8.838;2023-02-26T18:07:44;-0.30;46.20
32293;DHT22;43233;48.608;8.838;2023-02-26T18:10:20;-0.30;46.90
32293;DHT22;43233;48.608;8.838;2023-02-26T18:12:46;-0.30;47.60
32293;DHT22;43233;48.608;8.838;2023-02-26T18:15:12;-0.30;47.80
32293;DHT22;43233;48.608;8.838;2023-02-26T18:17:39;-0.40;48.20
32293;DHT22;43233;48.608;8.838;2023-02-26T18:20:05;-0.40;48.80
32293;DHT22;43233;48.608;8.838;2023-02-26T18:22:32;-0.50;48.80
32293;DHT22;43233;48.608;8.838;2023-02-26T18:24:58;-0.60;49.70
32293;DHT22;43233;48.608;8.838;2023-02-26T18:27:25;-0.60;49.60
32293;DHT22;43233;48.608;8.838;2023-02-26T18:29:51;-0.60;49.10
32293;DHT22;43233;48.608;8.838;2023-02-26T18:32:20;-0.60;49.30
32293;DHT22;43233;48.608;8.838;2023-02-26T18:34:46;-0.60;48.90
32293;DHT22;43233;48.608;8.838;2023-02-26T18:37:19;-0.70;48.90